sensor_id;sensor_type;location;lat;lon;timestamp;P1;durP1;ratioP1;P2;durP2;ratioP2
3099;SDS011;1560;52.746;13.474;2023-02-15T00:01:42;41.53;;;21.55;;
3099;SDS011;1560;52.746;13.474;2023-02-15T00:04:13;37.90;;;20.68;;
3099;SDS011;1560;52.746;13.474;2023-02-15T00:06:42;43.28;;;19.67;;
3099;SDS011;1560;52.746;13.474;2023-02-15T00:09:11;40.60;;;20.43;;
3099;SDS011;1560;52.746;13.474;2023-02-15T00:11:40;39.42;;;19.95;;
3099;SDS011;1560;52.746;13.474;2023-02-15T00:14:12;45.95;;;21.75;;
3099;SDS011;1560;52.746;13.474;2023-02-15T00:16:42;45.75;;;20.80;;
3099;SDS011;1560;52.746;13.474;2023-02-15T00:19:12;46.58;;;23.92;;
3099;SDS011;1560;52.746;13.474;2023-02-15T00:21:43;48.00;;;22.50;;
3099;SDS011;1560;52.746;13.474;2023-02-15T00:26:49;42.53;;;20.72;;
3099;SDS011;1560;52.746;13.474;2023-02-15T00:29:18;41.48;;;20.90;;
3099;SDS011;1560;52.746;13.474;2023-02-15T00:31:48;40.67;;;20.57;;
3099;SDS011;1560;52.746;13.474;2023-02-15T00:34:18;47.13;;;20.30;;
3099;SDS011;1560;52.746;13.474;2023-02-15T00:36:56;35.92;;;18.73;;
3099;SDS011;1560;52.746;13.474;2023-02-15T00:39:25;39.63;;;19.62;;
3099;SDS011;1560;52.746;13.474;2023-02-15T00:41:55;38.98;;;20.25;;
3099;SDS011;1560;52.746;13.474;2023-02-15T00:47:01;38.42;;;19.65;;
3099;SDS011;1560;52.746;13.474;2023-02-15T00:49:30;41.30;;;21.17;;
3099;SDS011;1560;52.746;13.474;2023-02-15T00:54:35;38.05;;;18.82;;
3099;SDS011;1560;52.746;13.474;2023-02-15T00:57:05;37.23;;;18.87;;
3099;SDS011;1560;52.746;13.474;2023-02-15T00:59:33;47.60;;;20.72;;
3099;SDS011;1560;52.746;13.474;2023-02-15T01:02:02;36.45;;;18.20;;
3099;SDS011;1560;52.746;13.474;2023-02-15T01:04:31;40.30;;;18.80;;
3099;SDS011;1560;52.746;13.474;2023-02-15T01:07:00;41.95;;;19.45;;
3099;SDS011;1560;52.746;13.474;2023-02-15T01:09:30;39.55;;;19.15;;
3099;SDS011;1560;52.746;13.474;2023-02-15T01:11:59;40.05;;;20.10;;
3099;SDS011;1560;52.746;13.474;2023-02-15T01:14:36;37.40;;;19.57;;
3099;SDS011;1560;52.746;13.474;2023-02-15T01:17:05;33.33;;;18.50;;
3099;SDS011;1560;52.746;13.474;2023-02-15T01:19:34;37.70;;;20.00;;
3099;SDS011;1560;52.746;13.474;2023-02-15T01:22:03;44.05;;;20.82;;
3099;SDS011;1560;52.746;13.474;2023-02-15T01:24:40;39.78;;;19.23;;
3099;SDS011;1560;52.746;13.474;2023-02-15T01:27:10;38.25;;;18.48;;
3099;SDS011;1560;52.746;13.474;2023-02-15T01:29:39;34.05;;;18.60;;
3099;SDS011;1560;52.746;13.474;2023-02-15T01:32:08;35.92;;;19.02;;
3099;SDS011;1560;52.746;13.474;2023-02-15T01:37:13;39.78;;;18.73;;
3099;SDS011;1560;52.746;13.474;2023-02-15T01:39:42;34.98;;;20.00;;
3099;SDS011;1560;52.746;13.474;2023-02-15T01:42:11;42.58;;;19.02;;
3099;SDS011;1560;52.746;13.474;2023-02-15T01:44:50;44.48;;;20.77;;
3099;SDS011;1560;52.746;13.474;2023-02-15T01:47:22;35.40;;;17.92;;
3099;SDS011;1560;52.746;13.474;2023-02-15T01:49:54;35.90;;;18.10;;
3099;SDS011;1560;52.746;13.474;2023-02-15T01:52:26;33.08;;;18.35;;
3099;SDS011;1560;52.746;13.474;2023-02-15T01:54:56;39.40;;;21.27;;
3099;SDS011;1560;52.746;13.474;2023-02-15T02:00:03;38.88;;;18.40;;
3099;SDS011;1560;52.746;13.474;2023-02-15T02:05:11;35.75;;;18.15;;
3099;SDS011;1560;52.746;13.474;2023-02-15T02:10:17;34.43;;;16.65;;
3099;SDS011;1560;52.746;13.474;2023-02-15T02:12:50;34.23;;;17.32;;
3099;SDS011;1560;52.746;13.474;2023-02-15T02:15:23;36.15;;;18.57;;
3099;SDS011;1560;52.746;13.474;2023-02-15T02:18:06;37.67;;;17.75;;
3099;SDS011;1560;52.746;13.474;2023-02-15T02:23:46;38.88;;;19.52;;
3099;SDS011;1560;52.746;13.474;2023-02-15T02:26:32;34.67;;;17.27;;
3099;SDS011;1560;52.746;13.474;2023-02-15T02:29:47;36.93;;;18.05;;
3099;SDS011;1560;52.746;13.474;2023-02-15T02:38:15;36.75;;;17.17;;
3099;SDS011;1560;52.746;13.474;2023-02-15T02:40:48;32.55;;;17.55;;
3099;SDS011;1560;52.746;13.474;2023-02-15T02:45:58;31.70;;;15.10;;
3099;SDS011;1560;52.746;13.474;2023-02-15T02:48:30;40.63;;;17.45;;
3099;SDS011;1560;52.746;13.474;2023-02-15T02:51:00;36.70;;;17.42;;
3099;SDS011;1560;52.746;13.474;2023-02-15T02:53:32;38.80;;;18.42;;
3099;SDS011;1560;52.746;13.474;2023-02-15T02:58:40;40.48;;;19.48;;
3099;SDS011;1560;52.746;13.474;2023-02-15T03:01:19;31.93;;;15.93;;
3099;SDS011;1560;52.746;13.474;2023-02-15T03:03:51;28.85;;;16.80;;
3099;SDS011;1560;52.746;13.474;2023-02-15T03:06:24;35.65;;;17.32;;
3099;SDS011;1560;52.746;13.474;2023-02-15T03:08:55;32.25;;;17.45;;
3099;SDS011;1560;52.746;13.474;2023-02-15T03:11:26;31.23;;;15.90;;
3099;SDS011;1560;52.746;13.474;2023-02-15T03:13:56;33.05;;;16.20;;
3099;SDS011;1560;52.746;13.474;2023-02-15T03:19:03;37.50;;;16.95;;
3099;SDS011;1560;52.746;13.474;2023-02-15T03:24:12;40.78;;;16.57;;
3099;SDS011;1560;52.746;13.474;2023-02-15T03:26:45;32.13;;;17.57;;
3099;SDS011;1560;52.746;13.474;2023-02-15T03:31:53;37.03;;;16.65;;
3099;SDS011;1560;52.746;13.474;2023-02-15T03:34:24;31.17;;;16.37;;
3099;SDS011;1560;52.746;13.474;2023-02-15T03:36:55;40.17;;;17.40;;
3099;SDS011;1560;52.746;13.474;2023-02-15T03:42:05;38.08;;;17.70;;
3099;SDS011;1560;52.746;13.474;2023-02-15T03:44:38;32.50;;;17.27;;
3099;SDS011;1560;52.746;13.474;2023-02-15T03:47:17;33.73;;;17.37;;
3099;SDS011;1560;52.746;13.474;2023-02-15T03:52:25;34.55;;;17.90;;
3099;SDS011;1560;52.746;13.474;2023-02-15T03:54:56;31.15;;;17.10;;
3099;SDS011;1560;52.746;13.474;2023-02-15T03:57:34;40.95;;;19.12;;
3099;SDS011;1560;52.746;13.474;2023-02-15T04:00:22;36.80;;;15.83;;
3099;SDS011;1560;52.746;13.474;2023-02-15T04:03:17;36.90;;;20.05;;
3099;SDS011;1560;52.746;13.474;2023-02-15T04:05:50;41.50;;;19.45;;
3099;SDS011;1560;52.746;13.474;2023-02-15T04:08:19;44.48;;;18.75;;
3099;SDS011;1560;52.746;13.474;2023-02-15T04:10:50;39.03;;;17.90;;
3099;SDS011;1560;52.746;13.474;2023-02-15T04:13:19;49.03;;;19.92;;
3099;SDS011;1560;52.746;13.474;2023-02-15T04:15:49;39.03;;;18.80;;
3099;SDS011;1560;52.746;13.474;2023-02-15T04:18:26;40.90;;;18.98;;
3099;SDS011;1560;52.746;13.474;2023-02-15T04:23:49;45.25;;;20.45;;
3099;SDS011;1560;52.746;13.474;2023-02-15T04:26:36;40.33;;;19.90;;
3099;SDS011;1560;52.746;13.474;2023-02-15T04:29:13;46.55;;;21.95;;
3099;SDS011;1560;52.746;13.474;2023-02-15T04:31:42;44.42;;;21.95;;
3099;SDS011;1560;52.746;13.474;2023-02-15T04:34:11;42.45;;;19.45;;
3099;SDS011;1560;52.746;13.474;2023-02-15T04:39:17;46.70;;;21.70;;
3099;SDS011;1560;52.746;13.474;2023-02-15T04:44:23;51.08;;;22.80;;
3099;SDS011;1560;52.746;13.474;2023-02-15T04:46:51;51.48;;;22.42;;
3099;SDS011;1560;52.746;13.474;2023-02-15T04:49:21;49.77;;;21.70;;
3099;SDS011;1560;52.746;13.474;2023-02-15T04:51:50;52.73;;;21.50;;
3099;SDS011;1560;52.746;13.474;2023-02-15T04:54:18;54.53;;;23.52;;
3099;SDS011;1560;52.746;13.474;2023-02-15T04:56:47;49.33;;;21.20;;
3099;SDS011;1560;52.746;13.474;2023-02-15T04:59:25;50.03;;;23.55;;
3099;SDS011;1560;52.746;13.474;2023-02-15T05:01:54;41.95;;;21.12;;
3099;SDS011;1560;52.746;13.474;2023-02-15T05:04:23;52.00;;;23.98;;
3099;SDS011;1560;52.746;13.474;2023-02-15T05:06:52;59.98;;;26.05;;
3099;SDS011;1560;52.746;13.474;2023-02-15T05:11:57;49.70;;;22.80;;
3099;SDS011;1560;52.746;13.474;2023-02-15T05:14:26;45.28;;;23.02;;
3099;SDS011;1560;52.746;13.474;2023-02-15T05:16:55;53.68;;;22.00;;
3099;SDS011;1560;52.746;13.474;2023-02-15T05:22:02;44.77;;;19.80;;
3099;SDS011;1560;52.746;13.474;2023-02-15T05:24:30;50.90;;;21.62;;
3099;SDS011;1560;52.746;13.474;2023-02-15T05:27:17;47.83;;;21.75;;
3099;SDS011;1560;52.746;13.474;2023-02-15T05:30:06;49.42;;;23.87;;
3099;SDS011;1560;52.746;13.474;2023-02-15T05:35:14;52.70;;;22.37;;
3099;SDS011;1560;52.746;13.474;2023-02-15T05:37:46;51.70;;;22.22;;
3099;SDS011;1560;52.746;13.474;2023-02-15T05:40:23;49.30;;;21.87;;
3099;SDS011;1560;52.746;13.474;2023-02-15T05:42:52;59.98;;;24.67;;
3099;SDS011;1560;52.746;13.474;2023-02-15T05:48:00;57.90;;;26.40;;
3099;SDS011;1560;52.746;13.474;2023-02-15T05:50:33;55.67;;;24.40;;
3099;SDS011;1560;52.746;13.474;2023-02-15T05:53:10;50.58;;;25.00;;
3099;SDS011;1560;52.746;13.474;2023-02-15T05:55:40;61.92;;;24.87;;
3099;SDS011;1560;52.746;13.474;2023-02-15T05:58:09;64.95;;;26.12;;
3099;SDS011;1560;52.746;13.474;2023-02-15T06:00:38;61.88;;;28.67;;
3099;SDS011;1560;52.746;13.474;2023-02-15T06:03:09;61.55;;;28.12;;
3099;SDS011;1560;52.746;13.474;2023-02-15T06:05:45;67.78;;;27.00;;
3099;SDS011;1560;52.746;13.474;2023-02-15T06:08:27;68.17;;;27.40;;
3099;SDS011;1560;52.746;13.474;2023-02-15T06:10:56;55.67;;;26.75;;
3099;SDS011;1560;52.746;13.474;2023-02-15T06:13:34;64.97;;;26.97;;
3099;SDS011;1560;52.746;13.474;2023-02-15T06:16:03;60.83;;;25.35;;
3099;SDS011;1560;52.746;13.474;2023-02-15T06:18:41;62.03;;;27.07;;
3099;SDS011;1560;52.746;13.474;2023-02-15T06:21:10;56.10;;;24.92;;
3099;SDS011;1560;52.746;13.474;2023-02-15T06:26:15;60.90;;;31.42;;
3099;SDS011;1560;52.746;13.474;2023-02-15T06:31:21;79.55;;;34.73;;
3099;SDS011;1560;52.746;13.474;2023-02-15T06:33:50;72.37;;;34.05;;
3099;SDS011;1560;52.746;13.474;2023-02-15T06:36:18;79.37;;;35.45;;
3099;SDS011;1560;52.746;13.474;2023-02-15T06:38:56;73.20;;;34.20;;
3099;SDS011;1560;52.746;13.474;2023-02-15T06:41:34;75.00;;;33.20;;
3099;SDS011;1560;52.746;13.474;2023-02-15T06:44:03;81.80;;;36.25;;
3099;SDS011;1560;52.746;13.474;2023-02-15T06:46:32;82.55;;;33.65;;
3099;SDS011;1560;52.746;13.474;2023-02-15T06:49:01;76.70;;;34.30;;
3099;SDS011;1560;52.746;13.474;2023-02-15T06:51:29;84.58;;;34.15;;
3099;SDS011;1560;52.746;13.474;2023-02-15T06:54:00;88.80;;;35.85;;
3099;SDS011;1560;52.746;13.474;2023-02-15T06:56:37;94.35;;;34.03;;
3099;SDS011;1560;52.746;13.474;2023-02-15T06:59:06;71.80;;;34.25;;
3099;SDS011;1560;52.746;13.474;2023-02-15T07:01:38;105.07;;;40.60;;
3099;SDS011;1560;52.746;13.474;2023-02-15T07:04:07;86.60;;;37.05;;
3099;SDS011;1560;52.746;13.474;2023-02-15T07:06:36;71.50;;;34.48;;
3099;SDS011;1560;52.746;13.474;2023-02-15T07:09:05;89.40;;;36.25;;
3099;SDS011;1560;52.746;13.474;2023-02-15T07:14:10;84.20;;;32.30;;
3099;SDS011;1560;52.746;13.474;2023-02-15T07:16:39;81.28;;;34.45;;
3099;SDS011;1560;52.746;13.474;2023-02-15T07:19:08;73.95;;;32.78;;
3099;SDS011;1560;52.746;13.474;2023-02-15T07:21:37;76.70;;;33.92;;
3099;SDS011;1560;52.746;13.474;2023-02-15T07:24:06;79.03;;;33.25;;
3099;SDS011;1560;52.746;13.474;2023-02-15T07:29:12;76.92;;;33.35;;
3099;SDS011;1560;52.746;13.474;2023-02-15T07:34:18;89.07;;;34.60;;
3099;SDS011;1560;52.746;13.474;2023-02-15T07:36:47;81.35;;;33.20;;
3099;SDS011;1560;52.746;13.474;2023-02-15T07:39:17;96.67;;;36.17;;
3099;SDS011;1560;52.746;13.474;2023-02-15T07:41:46;89.45;;;36.50;;
3099;SDS011;1560;52.746;13.474;2023-02-15T07:44:15;93.85;;;37.30;;
3099;SDS011;1560;52.746;13.474;2023-02-15T07:46:44;73.45;;;32.78;;
3099;SDS011;1560;52.746;13.474;2023-02-15T07:51:49;81.28;;;34.30;;
3099;SDS011;1560;52.746;13.474;2023-02-15T07:54:18;90.77;;;34.08;;
3099;SDS011;1560;52.746;13.474;2023-02-15T07:56:47;66.53;;;30.05;;
3099;SDS011;1560;52.746;13.474;2023-02-15T07:59:16;79.27;;;31.87;;
3099;SDS011;1560;52.746;13.474;2023-02-15T08:01:45;79.90;;;34.18;;
3099;SDS011;1560;52.746;13.474;2023-02-15T08:06:52;73.33;;;30.70;;
3099;SDS011;1560;52.746;13.474;2023-02-15T08:09:21;75.12;;;31.70;;
3099;SDS011;1560;52.746;13.474;2023-02-15T08:11:50;82.50;;;31.82;;
3099;SDS011;1560;52.746;13.474;2023-02-15T08:14:21;70.50;;;31.00;;
3099;SDS011;1560;52.746;13.474;2023-02-15T08:16:50;76.70;;;32.48;;
3099;SDS011;1560;52.746;13.474;2023-02-15T08:19:21;76.65;;;30.37;;
3099;SDS011;1560;52.746;13.474;2023-02-15T08:21:52;88.90;;;33.75;;
3099;SDS011;1560;52.746;13.474;2023-02-15T08:24:24;81.75;;;32.08;;
3099;SDS011;1560;52.746;13.474;2023-02-15T08:26:54;74.30;;;33.02;;
3099;SDS011;1560;52.746;13.474;2023-02-15T08:32:00;81.15;;;29.07;;
3099;SDS011;1560;52.746;13.474;2023-02-15T08:34:31;65.67;;;30.32;;
3099;SDS011;1560;52.746;13.474;2023-02-15T08:37:02;72.70;;;30.32;;
3099;SDS011;1560;52.746;13.474;2023-02-15T08:39:40;73.02;;;32.25;;
3099;SDS011;1560;52.746;13.474;2023-02-15T08:42:09;75.22;;;30.92;;
3099;SDS011;1560;52.746;13.474;2023-02-15T08:47:15;67.17;;;28.87;;
3099;SDS011;1560;52.746;13.474;2023-02-15T08:52:20;73.42;;;31.00;;
3099;SDS011;1560;52.746;13.474;2023-02-15T08:54:49;67.75;;;30.02;;
3099;SDS011;1560;52.746;13.474;2023-02-15T08:57:18;69.20;;;32.45;;
3099;SDS011;1560;52.746;13.474;2023-02-15T08:59:55;86.32;;;36.30;;
3099;SDS011;1560;52.746;13.474;2023-02-15T09:02:24;70.57;;;31.85;;
3099;SDS011;1560;52.746;13.474;2023-02-15T09:04:53;76.25;;;29.60;;
3099;SDS011;1560;52.746;13.474;2023-02-15T09:07:21;63.42;;;30.77;;
3099;SDS011;1560;52.746;13.474;2023-02-15T09:09:50;69.05;;;29.65;;
3099;SDS011;1560;52.746;13.474;2023-02-15T09:12:19;63.73;;;28.90;;
3099;SDS011;1560;52.746;13.474;2023-02-15T09:17:24;67.45;;;30.68;;
3099;SDS011;1560;52.746;13.474;2023-02-15T09:19:53;63.25;;;29.40;;
3099;SDS011;1560;52.746;13.474;2023-02-15T09:24:58;63.63;;;28.15;;
3099;SDS011;1560;52.746;13.474;2023-02-15T09:27:27;62.75;;;31.55;;
3099;SDS011;1560;52.746;13.474;2023-02-15T09:30:06;71.35;;;29.67;;
3099;SDS011;1560;52.746;13.474;2023-02-15T09:35:12;72.00;;;32.33;;
3099;SDS011;1560;52.746;13.474;2023-02-15T09:37:41;74.17;;;31.60;;
3099;SDS011;1560;52.746;13.474;2023-02-15T09:40:18;68.07;;;36.65;;
3099;SDS011;1560;52.746;13.474;2023-02-15T09:43:06;68.97;;;30.92;;
3099;SDS011;1560;52.746;13.474;2023-02-15T09:45:55;61.95;;;27.73;;
3099;SDS011;1560;52.746;13.474;2023-02-15T09:48:41;63.65;;;30.40;;
3099;SDS011;1560;52.746;13.474;2023-02-15T09:51:18;69.15;;;29.32;;
3099;SDS011;1560;52.746;13.474;2023-02-15T09:54:01;70.35;;;28.92;;
3099;SDS011;1560;52.746;13.474;2023-02-15T09:59:16;66.67;;;26.80;;
3099;SDS011;1560;52.746;13.474;2023-02-15T10:01:50;66.10;;;29.95;;
3099;SDS011;1560;52.746;13.474;2023-02-15T10:04:33;67.62;;;28.75;;
3099;SDS011;1560;52.746;13.474;2023-02-15T10:07:15;67.17;;;29.37;;
3099;SDS011;1560;52.746;13.474;2023-02-15T10:09:51;67.37;;;28.55;;
3099;SDS011;1560;52.746;13.474;2023-02-15T10:12:31;72.05;;;30.50;;
3099;SDS011;1560;52.746;13.474;2023-02-15T10:15:18;62.98;;;29.42;;
3099;SDS011;1560;52.746;13.474;2023-02-15T10:20:53;63.92;;;29.65;;
3099;SDS011;1560;52.746;13.474;2023-02-15T10:26:12;77.87;;;32.30;;
3099;SDS011;1560;52.746;13.474;2023-02-15T10:31:23;63.28;;;29.72;;
3099;SDS011;1560;52.746;13.474;2023-02-15T10:34:01;69.12;;;30.70;;
3099;SDS011;1560;52.746;13.474;2023-02-15T10:36:42;65.45;;;31.12;;
3099;SDS011;1560;52.746;13.474;2023-02-15T10:39:23;71.67;;;30.30;;
3099;SDS011;1560;52.746;13.474;2023-02-15T10:41:57;77.50;;;35.38;;
3099;SDS011;1560;52.746;13.474;2023-02-15T10:44:31;72.80;;;32.55;;
3099;SDS011;1560;52.746;13.474;2023-02-15T10:50:08;72.15;;;29.30;;
3099;SDS011;1560;52.746;13.474;2023-02-15T10:55:21;75.80;;;34.43;;
3099;SDS011;1560;52.746;13.474;2023-02-15T10:57:55;78.40;;;34.25;;
3099;SDS011;1560;52.746;13.474;2023-02-15T11:03:05;70.08;;;31.25;;
3099;SDS011;1560;52.746;13.474;2023-02-15T11:05:42;73.55;;;35.03;;
3099;SDS011;1560;52.746;13.474;2023-02-15T11:08:15;83.90;;;32.67;;
3099;SDS011;1560;52.746;13.474;2023-02-15T11:10:47;70.75;;;33.85;;
3099;SDS011;1560;52.746;13.474;2023-02-15T11:13:26;68.95;;;30.17;;
3099;SDS011;1560;52.746;13.474;2023-02-15T11:15:59;66.22;;;29.70;;
3099;SDS011;1560;52.746;13.474;2023-02-15T11:21:09;73.15;;;31.15;;
3099;SDS011;1560;52.746;13.474;2023-02-15T11:23:41;86.92;;;34.95;;
3099;SDS011;1560;52.746;13.474;2023-02-15T11:26:21;73.55;;;32.75;;
3099;SDS011;1560;52.746;13.474;2023-02-15T11:28:52;80.32;;;32.88;;
3099;SDS011;1560;52.746;13.474;2023-02-15T11:34:01;80.32;;;33.08;;
3099;SDS011;1560;52.746;13.474;2023-02-15T11:36:33;82.27;;;34.10;;
3099;SDS011;1560;52.746;13.474;2023-02-15T11:39:05;76.57;;;32.50;;
3099;SDS011;1560;52.746;13.474;2023-02-15T11:41:46;72.62;;;31.77;;
3099;SDS011;1560;52.746;13.474;2023-02-15T11:44:19;75.85;;;31.52;;
3099;SDS011;1560;52.746;13.474;2023-02-15T11:46:50;77.62;;;32.25;;
3099;SDS011;1560;52.746;13.474;2023-02-15T11:49:22;83.87;;;39.95;;
3099;SDS011;1560;52.746;13.474;2023-02-15T11:51:53;90.15;;;38.92;;
3099;SDS011;1560;52.746;13.474;2023-02-15T11:54:26;77.25;;;34.08;;
3099;SDS011;1560;52.746;13.474;2023-02-15T11:56:56;79.17;;;34.18;;
3099;SDS011;1560;52.746;13.474;2023-02-15T11:59:29;85.90;;;38.28;;
3099;SDS011;1560;52.746;13.474;2023-02-15T12:02:00;92.60;;;36.20;;
3099;SDS011;1560;52.746;13.474;2023-02-15T12:07:09;73.25;;;31.40;;
3099;SDS011;1560;52.746;13.474;2023-02-15T12:09:45;75.20;;;29.05;;
3099;SDS011;1560;52.746;13.474;2023-02-15T12:12:22;66.75;;;31.97;;
3099;SDS011;1560;52.746;13.474;2023-02-15T12:14:53;70.72;;;32.83;;
3099;SDS011;1560;52.746;13.474;2023-02-15T12:17:24;84.03;;;35.58;;
3099;SDS011;1560;52.746;13.474;2023-02-15T12:19:55;68.62;;;33.38;;
3099;SDS011;1560;52.746;13.474;2023-02-15T12:22:28;69.17;;;30.80;;
3099;SDS011;1560;52.746;13.474;2023-02-15T12:24:59;82.62;;;34.78;;
3099;SDS011;1560;52.746;13.474;2023-02-15T12:30:13;62.05;;;30.90;;
3099;SDS011;1560;52.746;13.474;2023-02-15T12:35:25;67.40;;;31.82;;
3099;SDS011;1560;52.746;13.474;2023-02-15T12:37:56;64.87;;;31.48;;
3099;SDS011;1560;52.746;13.474;2023-02-15T12:40:31;69.37;;;33.67;;
3099;SDS011;1560;52.746;13.474;2023-02-15T12:43:08;68.52;;;32.23;;
3099;SDS011;1560;52.746;13.474;2023-02-15T12:45:50;63.45;;;31.48;;
3099;SDS011;1560;52.746;13.474;2023-02-15T12:48:20;70.72;;;31.82;;
3099;SDS011;1560;52.746;13.474;2023-02-15T12:53:30;63.65;;;31.42;;
3099;SDS011;1560;52.746;13.474;2023-02-15T12:56:01;62.00;;;30.88;;
3099;SDS011;1560;52.746;13.474;2023-02-15T12:58:39;64.90;;;33.10;;
3099;SDS011;1560;52.746;13.474;2023-02-15T13:01:12;67.53;;;30.68;;
3099;SDS011;1560;52.746;13.474;2023-02-15T13:03:59;55.50;;;30.43;;
3099;SDS011;1560;52.746;13.474;2023-02-15T13:06:29;57.23;;;29.98;;
3099;SDS011;1560;52.746;13.474;2023-02-15T13:09:05;59.50;;;31.80;;
3099;SDS011;1560;52.746;13.474;2023-02-15T13:14:16;66.10;;;32.15;;
3099;SDS011;1560;52.746;13.474;2023-02-15T13:16:48;58.98;;;27.50;;
3099;SDS011;1560;52.746;13.474;2023-02-15T13:19:19;49.67;;;28.80;;
3099;SDS011;1560;52.746;13.474;2023-02-15T13:21:51;58.58;;;28.55;;
3099;SDS011;1560;52.746;13.474;2023-02-15T13:24:22;55.83;;;28.30;;
3099;SDS011;1560;52.746;13.474;2023-02-15T13:26:54;68.65;;;29.77;;
3099;SDS011;1560;52.746;13.474;2023-02-15T13:29:25;54.77;;;30.10;;
3099;SDS011;1560;52.746;13.474;2023-02-15T13:31:56;60.67;;;27.27;;
3099;SDS011;1560;52.746;13.474;2023-02-15T13:34:28;53.05;;;27.37;;
3099;SDS011;1560;52.746;13.474;2023-02-15T13:39:37;54.10;;;28.55;;
3099;SDS011;1560;52.746;13.474;2023-02-15T13:42:14;50.73;;;28.35;;
3099;SDS011;1560;52.746;13.474;2023-02-15T13:44:56;52.73;;;28.92;;
3099;SDS011;1560;52.746;13.474;2023-02-15T13:50:13;50.45;;;26.97;;
3099;SDS011;1560;52.746;13.474;2023-02-15T13:55:31;55.35;;;28.35;;
3099;SDS011;1560;52.746;13.474;2023-02-15T13:58:09;57.17;;;29.52;;
3099;SDS011;1560;52.746;13.474;2023-02-15T14:00:46;54.20;;;26.52;;
3099;SDS011;1560;52.746;13.474;2023-02-15T14:06:42;51.10;;;28.12;;
3099;SDS011;1560;52.746;13.474;2023-02-15T14:09:20;59.67;;;29.70;;
3099;SDS011;1560;52.746;13.474;2023-02-15T14:11:54;55.52;;;28.67;;
3099;SDS011;1560;52.746;13.474;2023-02-15T14:14:31;51.42;;;27.60;;
3099;SDS011;1560;52.746;13.474;2023-02-15T14:17:19;51.10;;;26.90;;
3099;SDS011;1560;52.746;13.474;2023-02-15T14:19:51;53.13;;;26.93;;
3099;SDS011;1560;52.746;13.474;2023-02-15T14:22:25;52.78;;;25.77;;
3099;SDS011;1560;52.746;13.474;2023-02-15T14:25:05;49.38;;;25.57;;
3099;SDS011;1560;52.746;13.474;2023-02-15T14:27:45;53.78;;;28.77;;
3099;SDS011;1560;52.746;13.474;2023-02-15T14:30:20;51.53;;;28.47;;
3099;SDS011;1560;52.746;13.474;2023-02-15T14:32:51;56.77;;;27.05;;
3099;SDS011;1560;52.746;13.474;2023-02-15T14:38:00;51.28;;;26.05;;
3099;SDS011;1560;52.746;13.474;2023-02-15T14:40:37;56.40;;;29.40;;
3099;SDS011;1560;52.746;13.474;2023-02-15T14:43:34;52.27;;;26.77;;
3099;SDS011;1560;52.746;13.474;2023-02-15T14:46:21;49.00;;;26.95;;
3099;SDS011;1560;52.746;13.474;2023-02-15T14:48:54;46.75;;;25.35;;
3099;SDS011;1560;52.746;13.474;2023-02-15T14:57:38;49.15;;;26.25;;
3099;SDS011;1560;52.746;13.474;2023-02-15T15:00:30;44.55;;;24.45;;
3099;SDS011;1560;52.746;13.474;2023-02-15T15:03:03;46.90;;;24.82;;
3099;SDS011;1560;52.746;13.474;2023-02-15T15:08:29;50.23;;;26.00;;
3099;SDS011;1560;52.746;13.474;2023-02-15T15:17:09;52.13;;;26.27;;
3099;SDS011;1560;52.746;13.474;2023-02-15T15:22:39;42.65;;;23.40;;
3099;SDS011;1560;52.746;13.474;2023-02-15T15:25:10;46.13;;;25.20;;
3099;SDS011;1560;52.746;13.474;2023-02-15T15:27:49;55.28;;;25.05;;
3099;SDS011;1560;52.746;13.474;2023-02-15T15:33:38;49.18;;;23.40;;
3099;SDS011;1560;52.746;13.474;2023-02-15T15:36:32;48.83;;;25.62;;
3099;SDS011;1560;52.746;13.474;2023-02-15T15:39:29;53.28;;;25.25;;
3099;SDS011;1560;52.746;13.474;2023-02-15T15:42:20;49.95;;;25.48;;
3099;SDS011;1560;52.746;13.474;2023-02-15T15:45:02;40.25;;;21.57;;
3099;SDS011;1560;52.746;13.474;2023-02-15T15:48:00;48.45;;;24.37;;
3099;SDS011;1560;52.746;13.474;2023-02-15T15:50:34;42.70;;;22.90;;
3099;SDS011;1560;52.746;13.474;2023-02-15T15:55:48;46.40;;;23.40;;
3099;SDS011;1560;52.746;13.474;2023-02-15T15:58:28;47.83;;;24.75;;
3099;SDS011;1560;52.746;13.474;2023-02-15T16:01:06;50.92;;;24.45;;
3099;SDS011;1560;52.746;13.474;2023-02-15T16:03:37;41.75;;;23.12;;
3099;SDS011;1560;52.746;13.474;2023-02-15T16:08:49;46.35;;;22.17;;
3099;SDS011;1560;52.746;13.474;2023-02-15T17:00:49;39.45;;;19.75;;
3099;SDS011;1560;52.746;13.474;2023-02-15T17:03:21;36.95;;;20.90;;
3099;SDS011;1560;52.746;13.474;2023-02-15T17:06:00;47.40;;;24.25;;
3099;SDS011;1560;52.746;13.474;2023-02-15T17:21:40;37.42;;;22.32;;
3099;SDS011;1560;52.746;13.474;2023-02-15T17:24:15;43.08;;;21.50;;
3099;SDS011;1560;52.746;13.474;2023-02-15T17:26:50;45.28;;;23.18;;
3099;SDS011;1560;52.746;13.474;2023-02-15T17:29:31;50.23;;;23.50;;
3099;SDS011;1560;52.746;13.474;2023-02-15T17:32:14;47.35;;;23.25;;
3099;SDS011;1560;52.746;13.474;2023-02-15T17:34:57;49.35;;;23.87;;
3099;SDS011;1560;52.746;13.474;2023-02-15T17:51:09;41.25;;;21.75;;
3099;SDS011;1560;52.746;13.474;2023-02-15T17:53:42;44.10;;;21.50;;
3099;SDS011;1560;52.746;13.474;2023-02-15T17:56:33;42.93;;;22.17;;
3099;SDS011;1560;52.746;13.474;2023-02-15T17:59:04;47.30;;;23.22;;
3099;SDS011;1560;52.746;13.474;2023-02-15T18:36:47;44.90;;;21.50;;
3099;SDS011;1560;52.746;13.474;2023-02-15T18:42:04;46.37;;;22.50;;
3099;SDS011;1560;52.746;13.474;2023-02-15T18:44:41;41.37;;;20.17;;
3099;SDS011;1560;52.746;13.474;2023-02-15T18:47:15;39.13;;;18.95;;
3099;SDS011;1560;52.746;13.474;2023-02-15T18:49:53;44.77;;;22.48;;
3099;SDS011;1560;52.746;13.474;2023-02-15T18:52:23;39.90;;;20.08;;
3099;SDS011;1560;52.746;13.474;2023-02-15T18:54:55;42.35;;;22.67;;
3099;SDS011;1560;52.746;13.474;2023-02-15T18:57:27;42.67;;;21.75;;
3099;SDS011;1560;52.746;13.474;2023-02-15T18:59:57;38.67;;;20.68;;
3099;SDS011;1560;52.746;13.474;2023-02-15T19:02:26;44.73;;;20.90;;
3099;SDS011;1560;52.746;13.474;2023-02-15T19:04:55;47.27;;;20.85;;
3099;SDS011;1560;52.746;13.474;2023-02-15T19:07:24;43.38;;;23.07;;
3099;SDS011;1560;52.746;13.474;2023-02-15T19:10:03;39.05;;;21.23;;
3099;SDS011;1560;52.746;13.474;2023-02-15T19:12:34;42.05;;;20.80;;
3099;SDS011;1560;52.746;13.474;2023-02-15T19:17:40;39.70;;;23.65;;
3099;SDS011;1560;52.746;13.474;2023-02-15T19:20:14;45.67;;;22.85;;
3099;SDS011;1560;52.746;13.474;2023-02-15T19:22:52;44.83;;;24.35;;
3099;SDS011;1560;52.746;13.474;2023-02-15T19:25:24;52.23;;;26.87;;
3099;SDS011;1560;52.746;13.474;2023-02-15T19:27:54;46.55;;;23.80;;
3099;SDS011;1560;52.746;13.474;2023-02-15T19:30:26;50.88;;;25.77;;
3099;SDS011;1560;52.746;13.474;2023-02-15T19:32:56;47.43;;;22.82;;
3099;SDS011;1560;52.746;13.474;2023-02-15T19:38:05;48.75;;;24.47;;
3099;SDS011;1560;52.746;13.474;2023-02-15T19:40:35;41.02;;;23.62;;
3099;SDS011;1560;52.746;13.474;2023-02-15T19:45:41;46.83;;;22.98;;
3099;SDS011;1560;52.746;13.474;2023-02-15T19:50:47;47.00;;;24.20;;
3099;SDS011;1560;52.746;13.474;2023-02-15T19:53:21;49.10;;;25.82;;
3099;SDS011;1560;52.746;13.474;2023-02-15T19:55:51;53.45;;;26.30;;
3099;SDS011;1560;52.746;13.474;2023-02-15T19:58:21;51.15;;;26.97;;
3099;SDS011;1560;52.746;13.474;2023-02-15T20:00:50;42.05;;;25.00;;
3099;SDS011;1560;52.746;13.474;2023-02-15T20:05:55;42.53;;;21.65;;
3099;SDS011;1560;52.746;13.474;2023-02-15T20:08:24;43.15;;;20.10;;
3099;SDS011;1560;52.746;13.474;2023-02-15T20:13:32;39.90;;;20.68;;
3099;SDS011;1560;52.746;13.474;2023-02-15T20:16:01;43.08;;;21.15;;